Time;durP1;ratioP1;P1;durP2;ratioP2;P2;SDS_P1;SDS_P2;PMS_P1;PMS_P2;Temp;Humidity;BMP_temperature;BMP_pressure;BME280_temperature;BME280_humidity;BME280_pressure;Samples;Min_cycle;Max_cycle;Signal;HPM_P1;HPM_P2
2020/12/31 00:01:16;;;;;;;;;;;;;;;8.24;53.96;100098.88;6062531;23;99236;-78
2020/12/31 00:03:42;;;;;;;;;;;;;;;8.25;53.83;100096.19;6062713;23;97318;-77
2020/12/31 00:06:08;;;;;;;;;;;;;;;8.16;54.31;100099.13;6064174;23;97200;-78
2020/12/31 00:08:35;;;;;;;;;;;;;;;8.14;54.38;100102.75;6063928;23;99431;-79
2020/12/31 00:11:00;;;;;;;;;;;;;;;8.15;54.41;100100.06;6062986;23;98958;-79
2020/12/31 00:13:26;;;;;;;;;;;;;;;7.96;55.02;100110.38;6062990;23;96657;-80
2020/12/31 00:15:52;;;;;;;;;;;;;;;7.90;55.45;100110.59;6062230;23;96830;-79
2020/12/31 00:18:18;;;;;;;;;;;;;;;7.91;55.49;100116.72;6061489;23;99095;-79
2020/12/31 00:20:43;;;;;;;;;;;;;;;7.92;55.55;100110.53;6064527;23;98022;-80
2020/12/31 00:23:09;;;;;;;;;;;;;;;8.22;54.49;100116.47;6069436;23;97330;-79
2020/12/31 00:25:37;;;;;;;;;;;;;;;8.17;54.90;100123.69;6065659;23;96705;-79
2020/12/31 00:28:03;;;;;;;;;;;;;;;8.37;54.03;100119.47;6072103;23;99407;-79
2020/12/31 00:30:29;;;;;;;;;;;;;;;8.58;53.69;100127.50;6077191;23;97200;-77
2020/12/31 00:33:04;;;;;;;;;;;;;;;8.40;54.01;100127.22;6083611;23;95921;-78
2020/12/31 00:35:30;;;;;;;;;;;;;;;8.55;53.59;100132.84;6078246;23;97063;-79
2020/12/31 00:38:00;;;;;;;;;;;;;;;8.28;54.12;100122.38;6069406;23;101000;-79
2020/12/31 00:40:26;;;;;;;;;;;;;;;8.38;54.20;100129.09;6068479;23;102420;-78
2020/12/31 00:42:52;;;;;;;;;;;;;;;8.30;54.33;100130.22;6072638;23;96755;-78
2020/12/31 00:45:18;;;;;;;;;;;;;;;8.19;54.83;100127.13;6080745;23;96566;-78
2020/12/31 00:47:44;;;;;;;;;;;;;;;8.36;54.00;100133.53;6064511;23;99659;-78
2020/12/31 00:50:09;;;;;;;;;;;;;;;8.29;54.14;100133.78;6064612;23;98825;-79
2020/12/31 00:52:35;;;;;;;;;;;;;;;8.47;53.78;100142.84;6064037;23;96691;-78
2020/12/31 00:55:01;;;;;;;;;;;;;;;8.36;54.02;100143.19;6063645;23;97056;-78
2020/12/31 00:57:27;;;;;;;;;;;;;;;8.53;53.87;100135.56;6063042;23;98867;-78
2020/12/31 00:59:53;;;;;;;;;;;;;;;8.47;53.69;100133.13;6061871;23;99196;-79
2020/12/31 01:02:21;;;;;;;;;;;;;;;8.40;53.94;100140.41;6062401;23;96811;-77
2020/12/31 01:04:46;;;;;;;;;;;;;;;8.46;53.95;100141.13;6061427;23;96761;-78
2020/12/31 01:07:14;;;;;;;;;;;;;;;8.23;54.51;100140.13;6061864;23;98016;-78
2020/12/31 01:09:40;;;;;;;;;;;;;;;8.30;54.45;100144.28;6060913;23;98952;-78
2020/12/31 01:12:06;;;;;;;;;;;;;;;8.18;54.53;100149.09;6062397;23;96789;-78
2020/12/31 01:14:32;;;;;;;;;;;;;;;8.36;54.00;100151.97;6062559;23;97269;-79
2020/12/31 01:17:01;;;;;;;;;;;;;;;8.46;53.95;100149.88;6062286;23;98832;-78
2020/12/31 01:19:27;;;;;;;;;;;;;;;8.42;53.97;100147.38;6061676;23;99224;-78
2020/12/31 01:21:53;;;;;;;;;;;;;;;8.45;53.72;100148.16;6066339;23;96699;-79
2020/12/31 01:24:19;;;;;;;;;;;;;;;8.54;53.53;100147.78;6075369;23;97556;-79
2020/12/31 01:26:45;;;;;;;;;;;;;;;8.56;53.41;100155.66;6079097;23;97760;-78
2020/12/31 01:29:10;;;;;;;;;;;;;;;8.30;54.23;100151.28;6079648;23;101515;-78
2020/12/31 01:31:36;;;;;;;;;;;;;;;8.59;53.55;100152.91;6078221;23;97192;-79
2020/12/31 01:34:05;;;;;;;;;;;;;;;8.61;53.37;100153.69;6080701;23;96813;-78
2020/12/31 01:36:31;;;;;;;;;;;;;;;8.59;53.47;100152.91;6082028;23;101595;-78
2020/12/31 01:38:58;;;;;;;;;;;;;;;8.61;53.54;100151.06;6081043;23;99122;-79
2020/12/31 01:41:25;;;;;;;;;;;;;;;8.50;53.64;100156.75;6078204;23;96558;-79
2020/12/31 01:44:01;;;;;;;;;;;;;;;8.59;53.74;100160.81;6076148;23;96720;-78
2020/12/31 01:46:27;;;;;;;;;;;;;;;8.48;53.76;100166.44;6066145;23;100216;-77
2020/12/31 01:48:53;;;;;;;;;;;;;;;8.48;53.86;100160.31;6062006;23;98175;-78
2020/12/31 01:51:20;;;;;;;;;;;;;;;8.48;53.62;100163.81;6060688;23;97036;-78
2020/12/31 01:53:46;;;;;;;;;;;;;;;8.61;53.31;100167.72;6061168;23;96643;-78
2020/12/31 01:56:12;;;;;;;;;;;;;;;8.67;53.52;100171.91;6062250;23;98957;-78
2020/12/31 01:58:38;;;;;;;;;;;;;;;8.34;54.14;100180.09;6062001;23;99160;-78
2020/12/31 02:01:03;;;;;;;;;;;;;;;8.45;53.81;100171.84;6068908;23;96774;-79
2020/12/31 02:03:29;;;;;;;;;;;;;;;8.59;53.70;100176.63;6069209;23;97218;-77
2020/12/31 02:05:55;;;;;;;;;;;;;;;8.35;54.05;100170.44;6067927;23;97849;-78
2020/12/31 02:08:22;;;;;;;;;;;;;;;8.34;54.16;100161.69;6069980;23;99089;-79
2020/12/31 02:10:48;;;;;;;;;;;;;;;8.32;54.11;100173.19;6068078;23;96734;-78
2020/12/31 02:13:14;;;;;;;;;;;;;;;8.52;53.51;100161.94;6068042;23;96951;-80
2020/12/31 02:15:40;;;;;;;;;;;;;;;8.32;54.19;100163.53;6062645;23;98941;-79
2020/12/31 02:18:06;;;;;;;;;;;;;;;8.32;54.10;100167.94;6061213;23;97504;-78
2020/12/31 02:20:31;;;;;;;;;;;;;;;8.37;54.17;100164.22;6061492;23;97073;-78
2020/12/31 02:22:58;;;;;;;;;;;;;;;8.47;53.87;100172.63;6061352;23;96881;-78
2020/12/31 02:25:24;;;;;;;;;;;;;;;8.48;53.85;100169.09;6065919;23;102082;-79
2020/12/31 02:27:50;;;;;;;;;;;;;;;8.57;53.18;100160.88;6071442;23;99048;-79
2020/12/31 02:30:16;;;;;;;;;;;;;;;8.21;54.55;100170.88;6066279;23;96745;-78
2020/12/31 02:32:41;;;;;;;;;;;;;;;8.28;54.21;100163.63;6062484;23;96832;-78
2020/12/31 02:35:07;;;;;;;;;;;;;;;8.71;53.35;100170.91;6061254;23;98955;-79
2020/12/31 02:37:33;;;;;;;;;;;;;;;8.69;52.96;100175.34;6060897;23;99103;-79
2020/12/31 02:40:00;;;;;;;;;;;;;;;8.73;53.17;100171.69;6060811;23;96671;-78
2020/12/31 02:42:25;;;;;;;;;;;;;;;8.87;52.79;100168.53;6061019;23;97000;-78
2020/12/31 02:44:51;;;;;;;;;;;;;;;8.48;53.43;100174.34;6059794;23;99111;-78
2020/12/31 02:47:17;;;;;;;;;;;;;;;8.72;53.11;100167.34;6061283;23;100060;-78
2020/12/31 02:49:43;;;;;;;;;;;;;;;8.67;52.92;100179.81;6060504;23;96730;-79
2020/12/31 02:52:09;;;;;;;;;;;;;;;8.77;52.41;100168.03;6062952;23;96775;-78
2020/12/31 02:54:34;;;;;;;;;;;;;;;8.75;52.72;100175.13;6064888;23;98992;-78
2020/12/31 02:57:01;;;;;;;;;;;;;;;8.58;53.10;100173.13;6064359;23;102054;-78
2020/12/31 02:59:27;;;;;;;;;;;;;;;8.76;52.91;100171.59;6063292;23;96959;-79
2020/12/31 03:01:53;;;;;;;;;;;;;;;8.57;53.32;100175.81;6061890;23;97061;-78
2020/12/31 03:04:19;;;;;;;;;;;;;;;8.24;53.81;100178.69;6062147;23;99232;-78
2020/12/31 03:06:45;;;;;;;;;;;;;;;8.54;53.58;100184.66;6062297;23;98073;-78
2020/12/31 03:09:11;;;;;;;;;;;;;;;8.54;53.63;100183.81;6060994;23;96898;-80
2020/12/31 03:11:37;;;;;;;;;;;;;;;8.67;53.27;100183.31;6061072;23;96792;-79
2020/12/31 03:14:03;;;;;;;;;;;;;;;8.30;53.86;100189.03;6060544;23;99401;-78
2020/12/31 03:16:29;;;;;;;;;;;;;;;8.53;53.94;100184.75;6061317;23;100271;-79
2020/12/31 03:18:55;;;;;;;;;;;;;;;8.45;53.71;100187.66;6062601;23;96677;-78
2020/12/31 03:21:21;;;;;;;;;;;;;;;8.39;54.05;100185.22;6062145;23;96982;-79
2020/12/31 03:23:46;;;;;;;;;;;;;;;8.34;54.03;100179.25;6062718;23;97781;-78
2020/12/31 03:26:12;;;;;;;;;;;;;;;8.31;54.21;100190.75;6061228;23;98923;-78
2020/12/31 03:28:38;;;;;;;;;;;;;;;8.51;53.80;100186.56;6062896;23;97214;-77
2020/12/31 03:31:05;;;;;;;;;;;;;;;8.58;53.46;100193.34;6063044;23;97384;-78
2020/12/31 03:33:30;;;;;;;;;;;;;;;8.49;53.43;100188.38;6063609;23;99328;-77
2020/12/31 03:35:56;;;;;;;;;;;;;;;8.49;53.64;100185.75;6068706;23;99436;-78
2020/12/31 03:38:22;;;;;;;;;;;;;;;8.63;52.90;100186.13;6073296;23;96782;-78
2020/12/31 03:40:48;;;;;;;;;;;;;;;8.66;53.35;100183.38;6072774;23;96522;-78
2020/12/31 03:43:14;;;;;;;;;;;;;;;8.51;53.42;100187.44;6083210;23;100670;-78
2020/12/31 03:45:40;;;;;;;;;;;;;;;8.42;53.63;100184.25;6064551;23;97728;-78
2020/12/31 03:48:07;;;;;;;;;;;;;;;8.25;54.17;100184.81;6062158;23;96941;-78
2020/12/31 03:50:33;;;;;;;;;;;;;;;8.19;54.38;100190.28;6060811;23;96808;-76
2020/12/31 03:52:59;;;;;;;;;;;;;;;8.28;54.16;100190.81;6060199;23;98911;-78
2020/12/31 03:55:25;;;;;;;;;;;;;;;7.98;55.12;100189.25;6060667;23;101246;-79
2020/12/31 03:57:50;;;;;;;;;;;;;;;8.11;54.72;100187.91;6061141;23;97278;-79
2020/12/31 04:00:16;;;;;;;;;;;;;;;7.95;55.22;100189.34;6061748;23;96822;-80
2020/12/31 04:02:42;;;;;;;;;;;;;;;8.16;54.49;100185.13;6061049;23;99235;-79
2020/12/31 04:05:09;;;;;;;;;;;;;;;8.27;54.11;100189.09;6060750;23;97825;-79
2020/12/31 04:07:35;;;;;;;;;;;;;;;8.34;53.97;100190.63;6060976;23;96763;-79
2020/12/31 04:10:01;;;;;;;;;;;;;;;8.29;54.11;100182.00;6061309;23;96805;-79
2020/12/31 04:12:26;;;;;;;;;;;;;;;8.30;54.12;100183.78;6060149;23;99429;-79
2020/12/31 04:14:52;;;;;;;;;;;;;;;8.25;54.50;100184.81;6063211;23;99226;-79
2020/12/31 04:17:18;;;;;;;;;;;;;;;8.31;54.59;100185.50;6064879;23;96753;-79
2020/12/31 04:19:44;;;;;;;;;;;;;;;8.46;53.83;100181.47;6060491;23;96791;-78
2020/12/31 04:22:11;;;;;;;;;;;;;;;8.62;53.42;100190.53;6060606;23;99179;-79
2020/12/31 04:24:36;;;;;;;;;;;;;;;8.23;54.81;100189.25;6061285;23;100548;-79
2020/12/31 04:27:03;;;;;;;;;;;;;;;8.11;54.56;100189.69;6061544;23;96707;-78
2020/12/31 04:29:28;;;;;;;;;;;;;;;7.93;56.43;100191.19;6060913;23;96830;-79
2020/12/31 04:31:54;;;;;;;;;;;;;;;7.88;56.86;100190.44;6061443;23;99620;-78
2020/12/31 04:34:20;;;;;;;;;;;;;;;7.88;57.19;100195.72;6061393;23;99258;-78
2020/12/31 04:36:46;;;;;;;;;;;;;;;8.18;56.47;100193.84;6062275;23;96902;-78
2020/12/31 04:39:13;;;;;;;;;;;;;;;8.18;56.90;100194.69;6060673;23;96816;-79
2020/12/31 04:41:39;;;;;;;;;;;;;;;8.34;56.63;100195.03;6061379;23;98821;-79
2020/12/31 04:44:05;;;;;;;;;;;;;;;8.49;55.84;100194.50;6060163;23;98139;-79
2020/12/31 04:46:31;;;;;;;;;;;;;;;8.23;56.39;100200.66;6060104;23;96841;-79
2020/12/31 04:49:04;;;;;;;;;;;;;;;8.53;55.49;100195.28;6060211;23;96815;-79
2020/12/31 04:51:30;;;;;;;;;;;;;;;8.50;55.75;100200.63;6060812;23;98922;-78
2020/12/31 04:53:57;;;;;;;;;;;;;;;8.39;55.99;100204.53;6066435;23;98795;-79
2020/12/31 04:56:25;;;;;;;;;;;;;;;8.21;56.17;100196.34;6061540;23;97276;-79
2020/12/31 04:58:52;;;;;;;;;;;;;;;8.16;56.55;100200.91;6061845;23;96874;-78
2020/12/31 05:01:18;;;;;;;;;;;;;;;8.19;56.39;100196.44;6063050;23;98918;-79
2020/12/31 05:03:44;;;;;;;;;;;;;;;8.18;56.00;100214.91;6062919;23;97220;-79
2020/12/31 05:06:12;;;;;;;;;;;;;;;8.15;56.34;100210.56;6065138;23;96975;-79
2020/12/31 05:08:38;;;;;;;;;;;;;;;8.39;55.58;100222.94;6068106;23;96688;-78
2020/12/31 05:11:04;;;;;;;;;;;;;;;8.14;55.89;100215.91;6069138;23;99627;-78
2020/12/31 05:13:41;;;;;;;;;;;;;;;8.14;56.05;100219.38;6073960;23;97737;-78
2020/12/31 05:16:09;;;;;;;;;;;;;;;8.09;56.06;100215.19;6080565;23;96490;-77
2020/12/31 05:18:35;;;;;;;;;;;;;;;8.18;55.96;100221.00;6080222;23;96715;-78
2020/12/31 05:21:01;;;;;;;;;;;;;;;8.23;55.75;100219.09;6068976;23;97835;-79
2020/12/31 05:23:27;;;;;;;;;;;;;;;8.29;55.52;100229.41;6081220;23;98949;-79
2020/12/31 05:25:54;;;;;;;;;;;;;;;8.39;55.39;100225.59;6076121;23;97205;-78
2020/12/31 05:28:24;;;;;;;;;;;;;;;8.13;56.25;100228.22;6070623;23;96805;-79
2020/12/31 05:30:51;;;;;;;;;;;;;;;8.09;55.92;100230.97;6073003;23;97833;-79
2020/12/31 05:33:27;;;;;;;;;;;;;;;8.11;55.67;100235.28;6069825;23;98749;-78
2020/12/31 05:35:53;;;;;;;;;;;;;;;8.23;55.11;100234.00;6073290;23;97107;-78
2020/12/31 05:38:19;;;;;;;;;;;;;;;8.30;55.14;100230.25;6072305;23;97212;-78
2020/12/31 05:40:56;;;;;;;;;;;;;;;8.29;55.17;100233.81;6072474;23;99267;-79
2020/12/31 05:43:27;;;;;;;;;;;;;;;8.16;55.09;100233.34;6068802;23;96975;-78
2020/12/31 05:46:16;;;;;;;;;;;;;;;8.15;55.25;100231.63;6068584;23;96877;-80
2020/12/31 05:48:42;;;;;;;;;;;;;;;7.94;55.93;100237.63;6068751;23;96681;-78
2020/12/31 05:51:35;;;;;;;;;;;;;;;7.90;55.93;100236.84;6064992;23;97792;-79
2020/12/31 05:54:10;;;;;;;;;;;;;;;7.82;55.95;100244.13;6066224;23;101090;-79
2020/12/31 05:56:37;;;;;;;;;;;;;;;8.08;54.95;100240.66;6063438;23;96613;-78
2020/12/31 05:59:09;;;;;;;;;;;;;;;8.06;55.10;100237.22;6062245;23;96918;-78
2020/12/31 06:02:02;;;;;;;;;;;;;;;8.04;55.30;100243.44;6061785;23;99084;-78
2020/12/31 06:04:51;;;;;;;;;;;;;;;7.88;55.27;100249.19;6058274;23;98812;-78
2020/12/31 06:07:46;;;;;;;;;;;;;;;7.88;55.31;100249.19;6070080;23;96591;-79
2020/12/31 06:10:14;;;;;;;;;;;;;;;7.81;55.09;100239.78;6063435;23;96914;-78
2020/12/31 06:12:47;;;;;;;;;;;;;;;7.72;55.40;100250.59;6060422;23;99106;-78
2020/12/31 06:15:15;;;;;;;;;;;;;;;7.79;55.26;100249.50;6060343;23;98922;-79
2020/12/31 06:17:44;;;;;;;;;;;;;;;7.76;55.12;100246.09;6061041;23;96754;-78
2020/12/31 06:20:12;;;;;;;;;;;;;;;7.68;55.45;100253.38;6060262;23;96818;-78
2020/12/31 06:22:45;;;;;;;;;;;;;;;7.63;55.56;100250.88;6060510;23;99493;-78
2020/12/31 06:25:16;;;;;;;;;;;;;;;7.85;55.16;100251.94;6060633;23;99206;-78
2020/12/31 06:27:46;;;;;;;;;;;;;;;8.02;54.74;100251.38;6060892;23;96943;-78
2020/12/31 06:30:11;;;;;;;;;;;;;;;7.88;54.53;100250.97;6060433;23;96834;-78
2020/12/31 06:32:39;;;;;;;;;;;;;;;7.78;54.84;100253.03;6060389;23;98124;-78
2020/12/31 06:35:06;;;;;;;;;;;;;;;7.93;54.46;100256.94;6059827;23;99257;-79
2020/12/31 06:37:33;;;;;;;;;;;;;;;7.77;54.52;100255.72;6060479;23;96775;-78
2020/12/31 06:40:17;;;;;;;;;;;;;;;7.74;54.70;100259.31;6060202;23;96772;-78
2020/12/31 06:43:05;;;;;;;;;;;;;;;7.32;55.50;100264.09;6060609;23;99291;-78
2020/12/31 06:45:32;;;;;;;;;;;;;;;7.35;55.32;100273.69;6060114;23;98140;-78
2020/12/31 06:47:58;;;;;;;;;;;;;;;7.33;55.57;100273.72;6061274;23;96640;-78
2020/12/31 06:50:48;;;;;;;;;;;;;;;7.46;55.30;100277.69;6060754;23;96794;-78
2020/12/31 06:53:31;;;;;;;;;;;;;;;7.25;55.40;100277.47;6060805;23;99221;-78
2020/12/31 06:55:57;;;;;;;;;;;;;;;7.01;56.12;100279.91;6059862;23;98798;-78
2020/12/31 06:58:24;;;;;;;;;;;;;;;7.39;55.29;100278.78;6061330;23;96662;-78
2020/12/31 07:00:50;;;;;;;;;;;;;;;7.64;54.15;100280.66;6060218;23;96716;-78
2020/12/31 07:03:16;;;;;;;;;;;;;;;7.43;54.74;100283.03;6060939;23;98826;-78
2020/12/31 07:05:41;;;;;;;;;;;;;;;7.31;54.97;100277.28;6060542;23;98845;-78
2020/12/31 07:08:07;;;;;;;;;;;;;;;7.42;54.53;100283.94;6061656;23;96808;-78
2020/12/31 07:10:47;;;;;;;;;;;;;;;7.20;55.01;100282.88;6066703;23;96801;-77
2020/12/31 07:13:28;;;;;;;;;;;;;;;7.13;55.12;100289.19;6066516;23;97974;-77
2020/12/31 07:15:54;;;;;;;;;;;;;;;7.14;55.19;100285.69;6062079;23;98927;-77
2020/12/31 07:18:19;;;;;;;;;;;;;;;7.23;54.77;100288.00;6067731;23;97252;-78
2020/12/31 07:20:46;;;;;;;;;;;;;;;7.23;54.67;100280.13;6066891;23;96928;-77
2020/12/31 07:23:12;;;;;;;;;;;;;;;7.13;54.90;100290.06;6066088;23;98266;-78
2020/12/31 07:25:43;;;;;;;;;;;;;;;7.27;54.40;100289.66;6068475;23;97717;-77
2020/12/31 07:28:16;;;;;;;;;;;;;;;7.08;55.03;100285.84;6063905;23;96709;-77
2020/12/31 07:30:50;;;;;;;;;;;;;;;7.22;54.58;100282.84;6062270;23;96704;-78
2020/12/31 07:33:33;;;;;;;;;;;;;;;7.42;53.97;100291.81;6067603;23;99184;-77
2020/12/31 07:35:59;;;;;;;;;;;;;;;7.50;53.52;100288.97;6076213;23;98184;-77
2020/12/31 07:38:26;;;;;;;;;;;;;;;7.46;53.32;100285.59;6076040;23;96661;-78
2020/12/31 07:40:53;;;;;;;;;;;;;;;7.25;53.95;100298.50;6078860;23;96630;-78
2020/12/31 07:43:20;;;;;;;;;;;;;;;7.44;53.93;100300.53;6075020;23;99080;-77
2020/12/31 07:45:46;;;;;;;;;;;;;;;6.99;54.91;100301.88;6075030;23;98853;-78
2020/12/31 07:48:12;;;;;;;;;;;;;;;7.39;54.15;100306.84;6076971;23;96631;-78
2020/12/31 07:50:38;;;;;;;;;;;;;;;7.35;54.14;100300.78;6074758;23;96975;-77
2020/12/31 07:53:04;;;;;;;;;;;;;;;7.29;54.30;100305.38;6073842;23;99537;-78
2020/12/31 07:55:33;;;;;;;;;;;;;;;7.33;53.99;100297.38;6074397;23;99843;-78
2020/12/31 07:58:01;;;;;;;;;;;;;;;7.23;54.35;100306.41;6079044;23;96590;-78
2020/12/31 08:00:28;;;;;;;;;;;;;;;7.21;54.52;100305.63;6077809;23;96790;-77
2020/12/31 08:02:55;;;;;;;;;;;;;;;7.52;53.48;100310.84;6078181;23;99342;-77
2020/12/31 08:05:23;;;;;;;;;;;;;;;7.65;53.00;100312.19;6075688;23;97973;-77
2020/12/31 08:07:52;;;;;;;;;;;;;;;7.57;53.19;100308.91;6067760;23;96619;-78
2020/12/31 08:10:18;;;;;;;;;;;;;;;7.36;53.70;100317.44;6063502;23;97039;-78
2020/12/31 08:12:52;;;;;;;;;;;;;;;7.39;53.53;100315.59;6064884;23;98415;-78
2020/12/31 08:15:19;;;;;;;;;;;;;;;7.56;53.41;100313.31;6067232;23;98785;-77
2020/12/31 08:17:49;;;;;;;;;;;;;;;7.68;53.12;100314.69;6063946;23;97017;-78
2020/12/31 08:20:16;;;;;;;;;;;;;;;7.80;52.67;100318.75;6063044;23;96860;-77
2020/12/31 08:22:42;;;;;;;;;;;;;;;7.69;53.07;100319.06;6069765;23;99023;-77
2020/12/31 08:25:10;;;;;;;;;;;;;;;7.71;53.24;100319.88;6061022;23;101724;-78
2020/12/31 08:27:37;;;;;;;;;;;;;;;7.68;53.03;100316.50;6061288;23;96746;-78
2020/12/31 08:30:04;;;;;;;;;;;;;;;8.03;52.46;100318.88;6061273;23;96652;-78
2020/12/31 08:32:36;;;;;;;;;;;;;;;7.78;53.07;100318.78;6060464;23;99269;-79
2020/12/31 08:35:04;;;;;;;;;;;;;;;7.83;52.66;100321.28;6061956;23;99418;-79
2020/12/31 08:37:30;;;;;;;;;;;;;;;7.70;53.10;100317.28;6061389;23;97516;-78
2020/12/31 08:39:56;;;;;;;;;;;;;;;7.89;52.52;100323.72;6061857;23;96786;-79
2020/12/31 08:42:23;;;;;;;;;;;;;;;7.92;52.71;100324.50;6061923;23;98930;-78
2020/12/31 08:44:51;;;;;;;;;;;;;;;7.93;52.69;100325.34;6062582;23;99817;-79
2020/12/31 08:47:18;;;;;;;;;;;;;;;7.86;52.83;100323.81;6061276;23;97011;-79
2020/12/31 08:49:49;;;;;;;;;;;;;;;8.04;52.25;100328.50;6061132;23;96835;-78
2020/12/31 08:52:16;;;;;;;;;;;;;;;7.97;52.49;100326.97;6061646;23;101247;-78
2020/12/31 08:54:41;;;;;;;;;;;;;;;8.15;51.99;100326.38;6061257;23;99315;-79
2020/12/31 08:57:14;;;;;;;;;;;;;;;8.04;52.06;100325.00;6060515;23;96734;-78
2020/12/31 08:59:40;;;;;;;;;;;;;;;8.23;51.49;100328.75;6062591;23;96680;-79
2020/12/31 09:02:06;;;;;;;;;;;;;;;8.23;51.52;100324.38;6061587;23;97937;-79
2020/12/31 09:04:32;;;;;;;;;;;;;;;8.10;51.72;100330.06;6060895;23;99065;-80
2020/12/31 09:07:09;;;;;;;;;;;;;;;8.09;51.61;100326.56;6060392;23;96765;-81
2020/12/31 09:09:36;;;;;;;;;;;;;;;8.34;51.34;100322.25;6063662;23;96758;-81
2020/12/31 09:12:08;;;;;;;;;;;;;;;8.26;51.39;100328.69;6068342;23;98467;-82
2020/12/31 09:14:36;;;;;;;;;;;;;;;8.08;52.05;100335.38;6036329;23;97843;-82
2020/12/31 09:17:17;;;;;;;;;;;;;;;8.48;51.12;100342.00;6061204;23;96713;-82
2020/12/31 09:19:49;;;;;;;;;;;;;;;8.50;50.68;100322.63;6057690;23;96914;-82
2020/12/31 09:22:17;;;;;;;;;;;;;;;8.60;50.61;100337.19;6056220;23;97611;-82
2020/12/31 09:24:48;;;;;;;;;;;;;;;8.74;49.99;100329.69;6056968;23;99628;-81
2020/12/31 09:27:22;;;;;;;;;;;;;;;8.79;50.04;100327.75;6059141;23;97757;-81
2020/12/31 09:29:57;;;;;;;;;;;;;;;8.66;50.23;100329.06;6059413;23;96785;-83
2020/12/31 09:32:25;;;;;;;;;;;;;;;8.89;49.67;100330.06;6060039;23;99465;-82
2020/12/31 09:34:52;;;;;;;;;;;;;;;8.94;49.60;100321.09;6066695;23;101394;-83
2020/12/31 09:37:20;;;;;;;;;;;;;;;8.80;49.72;100320.69;6066647;23;96820;-85
2020/12/31 09:39:48;;;;;;;;;;;;;;;9.04;49.43;100319.00;6068378;23;96675;-79
2020/12/31 09:42:15;;;;;;;;;;;;;;;8.96;49.78;100319.25;6072496;23;99479;-83
2020/12/31 09:44:41;;;;;;;;;;;;;;;8.73;50.37;100327.09;6084837;23;97340;-81
2020/12/31 09:47:08;;;;;;;;;;;;;;;8.58;50.46;100330.28;6079324;23;96972;-81
2020/12/31 09:49:34;;;;;;;;;;;;;;;9.12;49.64;100327.50;6070964;23;96707;-81
2020/12/31 09:52:03;;;;;;;;;;;;;;;9.31;48.93;100327.69;6043777;23;98881;-83
2020/12/31 09:54:29;;;;;;;;;;;;;;;9.26;48.73;100325.19;6045193;23;100373;-80
2020/12/31 09:56:56;;;;;;;;;;;;;;;9.31;48.83;100323.28;6069820;23;96765;-81
2020/12/31 09:59:22;;;;;;;;;;;;;;;9.03;48.71;100320.78;6066850;23;97153;-81
2020/12/31 10:01:51;;;;;;;;;;;;;;;9.03;49.23;100318.13;6055591;23;98694;-81
2020/12/31 10:04:17;;;;;;;;;;;;;;;8.91;49.00;100322.97;6047045;23;98757;-79
2020/12/31 10:06:45;;;;;;;;;;;;;;;8.94;49.38;100313.19;6076662;23;96512;-80
2020/12/31 10:09:12;;;;;;;;;;;;;;;9.20;48.81;100313.09;6074261;23;97036;-80
2020/12/31 10:11:44;;;;;;;;;;;;;;;9.37;48.61;100309.00;6071836;23;100383;-81
2020/12/31 10:14:13;;;;;;;;;;;;;;;9.15;48.71;100306.28;6072375;23;100601;-79
2020/12/31 10:16:39;;;;;;;;;;;;;;;9.18;48.81;100306.19;6071445;23;96632;-79
2020/12/31 10:19:06;;;;;;;;;;;;;;;9.12;48.80;100299.31;6066182;23;97188;-78
2020/12/31 10:21:34;;;;;;;;;;;;;;;9.12;49.02;100299.31;6072756;23;97159;-80
2020/12/31 10:24:00;;;;;;;;;;;;;;;9.38;48.13;100302.81;6076147;23;99521;-81
2020/12/31 10:26:29;;;;;;;;;;;;;;;9.20;48.67;100299.91;6081941;23;96554;-79
2020/12/31 10:28:56;;;;;;;;;;;;;;;9.45;48.08;100306.94;6079666;23;96847;-78
2020/12/31 10:31:23;;;;;;;;;;;;;;;9.33;47.76;100300.31;6077571;23;99940;-79
2020/12/31 10:33:49;;;;;;;;;;;;;;;9.36;47.83;100300.22;6074687;23;97781;-79
2020/12/31 10:36:17;;;;;;;;;;;;;;;9.19;47.72;100292.91;6069089;23;97106;-80
2020/12/31 10:38:44;;;;;;;;;;;;;;;9.33;48.12;100296.81;6079931;23;97052;-81
2020/12/31 10:41:19;;;;;;;;;;;;;;;9.36;47.52;100288.81;6085136;23;99007;-82
2020/12/31 10:43:45;;;;;;;;;;;;;;;9.22;47.50;100299.00;6079634;23;99222;-82
2020/12/31 10:46:11;;;;;;;;;;;;;;;9.54;46.88;100288.97;6079221;23;96730;-80
2020/12/31 10:48:39;;;;;;;;;;;;;;;9.15;47.82;100286.06;6080025;23;96557;-80
2020/12/31 10:51:05;;;;;;;;;;;;;;;9.51;46.80;100283.81;6080166;23;102230;-81
2020/12/31 10:53:31;;;;;;;;;;;;;;;9.57;46.52;100277.44;6081131;23;100933;-79
2020/12/31 10:55:57;;;;;;;;;;;;;;;9.55;46.49;100272.22;6078315;23;96685;-80
2020/12/31 10:58:23;;;;;;;;;;;;;;;9.93;45.81;100275.97;6081766;23;96454;-79
2020/12/31 11:00:49;;;;;;;;;;;;;;;9.77;46.05;100269.63;6069169;23;97907;-81
2020/12/31 11:03:15;;;;;;;;;;;;;;;9.66;46.41;100260.38;6065266;23;98036;-79
2020/12/31 11:05:44;;;;;;;;;;;;;;;9.55;46.53;100256.41;6070118;23;96622;-78
2020/12/31 11:08:11;;;;;;;;;;;;;;;9.72;46.25;100250.44;6047103;23;96993;-80
2020/12/31 11:10:37;;;;;;;;;;;;;;;9.52;46.18;100253.00;6072287;23;98197;-80
2020/12/31 11:13:03;;;;;;;;;;;;;;;9.97;45.70;100245.06;6070699;23;98880;-80
2020/12/31 11:15:29;;;;;;;;;;;;;;;10.31;45.05;100239.25;6068102;23;96712;-81
2020/12/31 11:17:56;;;;;;;;;;;;;;;10.08;45.27;100232.28;6066250;23;96689;-81
2020/12/31 11:20:22;;;;;;;;;;;;;;;10.54;44.84;100231.22;6069478;23;96846;-81
2020/12/31 11:22:53;;;;;;;;;;;;;;;10.69;43.87;100225.28;6066997;23;98095;-82
2020/12/31 11:25:20;;;;;;;;;;;;;;;10.13;44.59;100225.00;6065873;23;96603;-81
2020/12/31 11:27:46;;;;;;;;;;;;;;;10.20;44.50;100225.66;6065232;23;96870;-81
2020/12/31 11:30:12;;;;;;;;;;;;;;;10.31;44.47;100218.97;6062909;23;97309;-81
2020/12/31 11:32:41;;;;;;;;;;;;;;;10.09;44.61;100218.16;6063886;23;101415;-81
2020/12/31 11:35:07;;;;;;;;;;;;;;;9.95;44.62;100221.38;6037616;23;97090;-80
2020/12/31 11:37:33;;;;;;;;;;;;;;;9.99;45.03;100222.09;6070086;23;96983;-79
2020/12/31 11:40:01;;;;;;;;;;;;;;;10.09;44.65;100218.16;6069017;23;99402;-81
2020/12/31 11:42:32;;;;;;;;;;;;;;;10.13;44.82;100221.50;6060073;23;98874;-80
2020/12/31 11:44:58;;;;;;;;;;;;;;;10.21;44.13;100211.53;6063118;23;96719;-80
2020/12/31 11:47:23;;;;;;;;;;;;;;;10.29;43.98;100214.72;6065134;23;96620;-81
2020/12/31 11:49:51;;;;;;;;;;;;;;;10.16;44.04;100210.84;6061923;23;99537;-82
2020/12/31 11:52:17;;;;;;;;;;;;;;;10.25;43.53;100206.03;6064760;23;97636;-82
2020/12/31 11:54:43;;;;;;;;;;;;;;;10.19;44.06;100214.22;6065051;23;96637;-81
2020/12/31 11:57:09;;;;;;;;;;;;;;;10.11;43.53;100212.81;6065108;23;96769;-81
2020/12/31 11:59:35;;;;;;;;;;;;;;;10.12;43.97;100215.38;6067129;23;101893;-79
2020/12/31 12:02:01;;;;;;;;;;;;;;;10.11;43.77;100210.19;6067329;23;99400;-79
2020/12/31 12:04:27;;;;;;;;;;;;;;;9.99;43.88;100215.03;6070001;23;97157;-80
2020/12/31 12:06:54;;;;;;;;;;;;;;;9.92;44.31;100216.19;6064963;23;96730;-80
2020/12/31 12:09:20;;;;;;;;;;;;;;;10.19;43.76;100216.00;6059981;23;99313;-80
2020/12/31 12:11:46;;;;;;;;;;;;;;;9.83;44.23;100213.09;6061362;23;98101;-81
2020/12/31 12:14:14;;;;;;;;;;;;;;;10.23;43.64;100209.69;6064645;23;96710;-81
2020/12/31 12:16:40;;;;;;;;;;;;;;;9.98;44.02;100201.88;6065810;23;96704;-81
2020/12/31 12:19:06;;;;;;;;;;;;;;;10.13;43.91;100205.66;6071022;23;97748;-81
2020/12/31 12:27:10;;;;;;;;;;;;;;;9.69;44.52;100205.72;5770491;23;103741;-80
2020/12/31 12:29:37;;;;;;;;;;;;;;;9.92;44.08;100202.13;6029267;23;99459;-80
2020/12/31 12:32:08;;;;;;;;;;;;;;;10.13;44.00;100203.88;6028715;23;100871;-79
2020/12/31 12:34:34;;;;;;;;;;;;;;;10.10;43.44;100196.13;6031905;23;96827;-80
2020/12/31 12:37:00;;;;;;;;;;;;;;;10.29;43.30;100198.88;6032062;23;97024;-79
2020/12/31 12:39:26;;;;;;;;;;;;;;;10.21;43.04;100200.97;6027552;23;101471;-79
2020/12/31 12:41:52;;;;;;;;;;;;;;;10.65;42.61;100201.66;6029943;23;97106;-79
2020/12/31 12:44:18;;;;;;;;;;;;;;;9.81;43.67;100210.50;6033698;23;97044;-80
2020/12/31 12:46:44;;;;;;;;;;;;;;;9.82;43.92;100208.72;6032317;23;97114;-79
2020/12/31 12:49:10;;;;;;;;;;;;;;;9.76;44.21;100211.63;6032310;23;97886;-79
2020/12/31 12:51:36;;;;;;;;;;;;;;;9.94;44.05;100214.38;6033099;23;98298;-80
2020/12/31 12:54:02;;;;;;;;;;;;;;;10.10;43.89;100213.75;6034139;23;96821;-81